Harvey, North Dakota
Current Conditions -  °F | °C
As of 8:35 AM on Thursday 30 Oct 2014 (Local Time) from K5H4 Reporting Station
Overcast Overcast  
Wind Chill: 19°   Ceiling: 700
Heat Index: 28°   Visibility: 9mi
Dew Point: 28°   Wind: 10mph
Humidity: 100%   Direction: 340°NNW
Pressure: 30.27"   Gusts: NA
Location:  47.77°N, 99.94°W
Report Text: K5H4 301335Z AUTO 34009KT 9SM OVC007 M02/M02 A3027 RMK AO2
Loading
Personal Weather Stations






























Interactive Weather Map
Tropical Storm Tracking
New forecast layout! Learn more

10-Day Weather Forecast

Advertisements
Track Severe Weather on mobile